Jacky L O'neal — WDG3892 — position and weather

sailwx.info

Track history (hours):
 
Tides and Currents Weather Stations Pressure Air Temp Water Temp Dewpoint Dewpoint Depression Visibility Wind Speed Wind Dir Waves Ship Positions

Jacky L O'neal

Owner: American Commercial Lines LLC, Jeffersonville, IN. More information available from US FCC via Universal Licensing System and Coast Guard Vessel Documentation Center.

Last reported at 2018-May-17 16:58 UTC. Time now 2018-May-21 17:02 UTC.
Position N 32°41' W 091°06'.

Length 55 m; draft 3.4 m.

Type: Towing. MMSI: 367530760.

Date/timePositionNaut miles runAvg speedWind from/ knotsBaromVisibWave heightAir tempDewpointWater temp
2018-May-17 16:58N 32°41' W 091°06'2 4.5
2018-May-17 16:30N 32°40' W 091°08'2 4.5
2018-May-17 15:59N 32°38' W 091°09'2 4.7
2018-May-17 15:30N 32°36' W 091°08'2 4.6
2018-May-17 15:00N 32°34' W 091°06'2 4.3
2018-May-17 14:30N 32°32' W 091°06'2 4.8
2018-May-17 14:00N 32°30' W 091°07'2 4.5
2018-May-17 13:30N 32°28' W 091°06'2 4.8
2018-May-17 13:00N 32°26' W 091°03'2 3.9
2018-May-17 12:30N 32°26' W 091°01'2 4.2
2018-May-17 12:00N 32°24' W 090°59'2 4.8
2018-May-17 11:30N 32°22' W 091°00'2 4.3
2018-May-17 11:00N 32°21' W 090°58'2 4.2
2018-May-17 10:30N 32°21' W 090°56'2 3.7
2018-May-17 10:00N 32°19' W 090°54'2 3.5
2018-May-17 09:30N 32°18' W 090°56'1 1.5
2018-May-17 09:00N 32°17' W 090°56'2 4.5
2018-May-17 08:30N 32°16' W 090°58'2 4.7
2018-May-17 08:00N 32°13' W 090°59'2 4.8
2018-May-17 07:30N 32°11' W 090°60'2 4.3
2018-May-17 07:00N 32°09' W 091°00'2 4.4
2018-May-17 06:30N 32°07' W 091°02'2 3.8
2018-May-17 05:56N 32°08' W 091°04'2 4.8
2018-May-17 05:30N 32°07' W 091°06'2 4.6
2018-May-17 05:00N 32°05' W 091°05'2 4.8
2018-May-17 04:30N 32°03' W 091°03'2 3.6
2018-May-17 04:00N 32°02' W 091°04'0 0.4
2018-May-17 03:30N 32°02' W 091°04'1 2.9
2018-May-17 03:00N 32°00' W 091°05'5 4.2
2018-May-17 01:51N 31°59' W 091°10'1 4.0
2018-May-17 01:30N 31°57' W 091°11'105 2.6
2018-May-15 08:26N 30°12' W 091°09'10 0.5
2018-May-14 14:04N 30°07' W 091°00'0 0.0
2018-May-14 13:28N 30°07' W 091°00'0 0.0
2018-May-14 12:04N 30°07' W 091°00'0 0.0
2018-May-14 12:00N 30°07' W 091°00'0 0.0
2018-May-14 09:40N 30°07' W 091°00'0 0.0
2018-May-14 09:27N 30°07' W 091°00'0 0.5
2018-May-14 08:57N 30°07' W 090°60'2 2.8
2018-May-14 08:13N 30°06' W 090°58'1 2.8
2018-May-14 08:00N 30°07' W 090°57'2 0.5
2018-May-14 04:08N 30°07' W 090°55'0 0.0
2018-May-14 04:00N 30°07' W 090°55'  
2018-May-11 15:11N 31°57' W 091°11'210.1
2018-May-11 15:00N 31°58' W 091°11'510.0
2018-May-11 14:30N 31°60' W 091°05'5 9.4
2018-May-11 14:00N 32°05' W 091°04'3 6.6
2018-May-11 13:30N 32°08' W 091°05'4 8.8
2018-May-11 13:00N 32°09' W 091°00'611.1
2018-May-11 12:30N 32°15' W 090°59'611.1
2018-May-11 12:00N 32°19' W 090°54'3 5.8
2018-May-11 11:30N 32°21' W 090°56'3 6.3
2018-May-11 11:00N 32°21' W 091°00'4 8.4
2018-May-11 10:30N 32°26' W 091°01'510.4
2018-May-11 10:00N 32°28' W 091°06'5 9.9
2018-May-11 09:30N 32°33' W 091°06'510.1
2018-May-11 09:00N 32°37' W 091°09'4 8.9
2018-May-11 08:30N 32°41' W 091°06'4 5.6
2018-May-11 07:51N 32°44' W 091°07'3 7.9
2018-May-11 07:30N 32°46' W 091°09'10 9.4
2018-May-11 06:26N 32°55' W 091°04'6 9.0
2018-May-11 05:46N 32°58' W 091°10'  
Track history (hours):
 
Tides and Currents Weather Stations Pressure Air Temp Water Temp Dewpoint Dewpoint Depression Visibility Wind Speed Wind Dir Waves Ship Positions

Jacky L O'neal

Owner: American Commercial Lines LLC, Jeffersonville, IN. More information available from US FCC via Universal Licensing System and Coast Guard Vessel Documentation Center.

Last reported at 2018-May-17 16:58 UTC. Time now 2018-May-21 17:02 UTC.
Position N 32°41' W 091°06'.

Length 55 m; draft 3.4 m.

Type: Towing. MMSI: 367530760.

Date/timePositionNaut miles runAvg speedWind from/ knotsBaromVisibWave heightAir tempDewpointWater temp
2018-May-17 16:58N 32°41' W 091°06'2 4.5
2018-May-17 16:30N 32°40' W 091°08'2 4.5
2018-May-17 15:59N 32°38' W 091°09'2 4.7
2018-May-17 15:30N 32°36' W 091°08'2 4.6
2018-May-17 15:00N 32°34' W 091°06'2 4.3
2018-May-17 14:30N 32°32' W 091°06'2 4.8
2018-May-17 14:00N 32°30' W 091°07'2 4.5
2018-May-17 13:30N 32°28' W 091°06'2 4.8
2018-May-17 13:00N 32°26' W 091°03'2 3.9
2018-May-17 12:30N 32°26' W 091°01'2 4.2
2018-May-17 12:00N 32°24' W 090°59'2 4.8
2018-May-17 11:30N 32°22' W 091°00'2 4.3
2018-May-17 11:00N 32°21' W 090°58'2 4.2
2018-May-17 10:30N 32°21' W 090°56'2 3.7
2018-May-17 10:00N 32°19' W 090°54'2 3.5
2018-May-17 09:30N 32°18' W 090°56'1 1.5
2018-May-17 09:00N 32°17' W 090°56'2 4.5
2018-May-17 08:30N 32°16' W 090°58'2 4.7
2018-May-17 08:00N 32°13' W 090°59'2 4.8
2018-May-17 07:30N 32°11' W 090°60'2 4.3
2018-May-17 07:00N 32°09' W 091°00'2 4.4
2018-May-17 06:30N 32°07' W 091°02'2 3.8
2018-May-17 05:56N 32°08' W 091°04'2 4.8
2018-May-17 05:30N 32°07' W 091°06'2 4.6
2018-May-17 05:00N 32°05' W 091°05'2 4.8
2018-May-17 04:30N 32°03' W 091°03'2 3.6
2018-May-17 04:00N 32°02' W 091°04'0 0.4
2018-May-17 03:30N 32°02' W 091°04'1 2.9
2018-May-17 03:00N 32°00' W 091°05'5 4.2
2018-May-17 01:51N 31°59' W 091°10'1 4.0
2018-May-17 01:30N 31°57' W 091°11'105 2.6
2018-May-15 08:26N 30°12' W 091°09'10 0.5
2018-May-14 14:04N 30°07' W 091°00'0 0.0
2018-May-14 13:28N 30°07' W 091°00'0 0.0
2018-May-14 12:04N 30°07' W 091°00'0 0.0
2018-May-14 12:00N 30°07' W 091°00'0 0.0
2018-May-14 09:40N 30°07' W 091°00'0 0.0
2018-May-14 09:27N 30°07' W 091°00'0 0.5
2018-May-14 08:57N 30°07' W 090°60'2 2.8
2018-May-14 08:13N 30°06' W 090°58'1 2.8
2018-May-14 08:00N 30°07' W 090°57'2 0.5
2018-May-14 04:08N 30°07' W 090°55'0 0.0
2018-May-14 04:00N 30°07' W 090°55'  
2018-May-11 15:11N 31°57' W 091°11'210.1
2018-May-11 15:00N 31°58' W 091°11'510.0
2018-May-11 14:30N 31°60' W 091°05'5 9.4
2018-May-11 14:00N 32°05' W 091°04'3 6.6
2018-May-11 13:30N 32°08' W 091°05'4 8.8
2018-May-11 13:00N 32°09' W 091°00'611.1
2018-May-11 12:30N 32°15' W 090°59'611.1
2018-May-11 12:00N 32°19' W 090°54'3 5.8
2018-May-11 11:30N 32°21' W 090°56'3 6.3
2018-May-11 11:00N 32°21' W 091°00'4 8.4
2018-May-11 10:30N 32°26' W 091°01'510.4
2018-May-11 10:00N 32°28' W 091°06'5 9.9
2018-May-11 09:30N 32°33' W 091°06'510.1
2018-May-11 09:00N 32°37' W 091°09'4 8.9
2018-May-11 08:30N 32°41' W 091°06'4 5.6
2018-May-11 07:51N 32°44' W 091°07'3 7.9
2018-May-11 07:30N 32°46' W 091°09'10 9.4
2018-May-11 06:26N 32°55' W 091°04'6 9.0
2018-May-11 05:46N 32°58' W 091°10'  

Dump ship's entire track history